Terminal Aerodrome Forecast
Issued by NWS

Home | Current Version | Previous Version | Text Only | Print | Product List | Glossary Off
Versions: 1 2 3 4 5 6 7 8 9 10 11 12 13 14 15 16 17 18 19 20 21 22 23 24 25 26 27

000
FTUS43 KLOT 192021 AAA
TAFORD
TAF AMD
KORD 192021Z 1920/2024 28015G25KT 6SM -TSRA BKN050CB
     FM192035 34025G35KT 6SM -TSRA BKN050CB
     FM192100 31015G25KT P6SM VCTS BKN050CB
      TEMPO 1921/1922 3SM -TSRA BKN050CB
     FM192300 29014G20KT P6SM BKN050
     FM200100 26006KT P6SM SCT050
     FM201600 29010KT P6SM SCT050 BKN100 PROB30 2018/2021 3SM -TSRA
      BKN050CB=

USA.gov is the U.S. government's official web portal to all federal, state and local government web resources and services.